首页
METAR-TAF:

METAR-TAF

机场 :

海口, 中华人民共和国

海口美兰国际机场

纬度: 19-56-05N, 经度: 110-27-32E, 海拔: 23米

当前天气观测

该预报发布于44分钟前的05:00 UTC
风速10节,风向东转东北,有时为21节阵风
温度 23°C
湿度 83%
气压 1017 hPa
能見度: 2400
阴天层高于500英尺
轻雾

METAR: ZJHK 250500Z 06005G11MPS 2400 BR OVC005 23/20 Q1017 BECMG AT0600 3000 BR

时间: 13:44 (05:44 UTC)

预报

该预报发布于2小时和42分钟前的03:02 UTC
预报有效从25日的 06点(UTC)到 26日的 06点(UTC)
风速8节,风向东北
能見度: 1200
多云层高于400英尺
轻雾
成为
从 25日的 07点(UTC)到 25日的 08点(UTC)
能見度: 2500
多云层高于700英尺
轻雾
成为
从 25日的 18点(UTC)到 25日的 19点(UTC)
能見度: 1400
多云层高于400英尺
轻雾

TAF: ZJHK 250302Z 2506/2606 04004MPS 1200 BR BKN004 TX24/2506Z TN18/2518Z BECMG 2507/2508 2500 BR BKN007 BECMG 2518/2519 1400 BR BKN004

超过4000个机场的气象观测和天气预报(METAR&TAF报告)。

可查询的气象台以黄色和红色小点在地图上表示。

将鼠标移到小点上方,可查看气象台名称。

然后点击查看天气观测和预报。

如需切换地图:点击带黑十字的绿色按钮放大地图;点击带横线的绿色按钮缩小地图;或者点击绿色箭头查看邻近地区的地图。


METAR-TAF: